sensor_id;sensor_type;location;lat;lon;timestamp;P1;durP1;ratioP1;P2;durP2;ratioP2
46925;SDS011;32667;48.248;-1.700;2023-05-24T00:02:22;0.10;;;0.10;;
46925;SDS011;32667;48.248;-1.700;2023-05-24T00:04:50;0.20;;;0.20;;
46925;SDS011;32667;48.248;-1.700;2023-05-24T00:07:20;0.20;;;0.20;;
46925;SDS011;32667;48.248;-1.700;2023-05-24T00:09:45;0.20;;;0.20;;
46925;SDS011;32667;48.248;-1.700;2023-05-24T00:12:11;0.20;;;0.20;;
46925;SDS011;32667;48.248;-1.700;2023-05-24T00:14:39;0.20;;;0.20;;
46925;SDS011;32667;48.248;-1.700;2023-05-24T00:17:05;0.20;;;0.20;;
46925;SDS011;32667;48.248;-1.700;2023-05-24T00:19:33;0.20;;;0.20;;
46925;SDS011;32667;48.248;-1.700;2023-05-24T00:22:03;0.20;;;0.20;;
46925;SDS011;32667;48.248;-1.700;2023-05-24T00:24:29;0.30;;;0.30;;
46925;SDS011;32667;48.248;-1.700;2023-05-24T00:26:57;0.20;;;0.20;;
46925;SDS011;32667;48.248;-1.700;2023-05-24T00:29:22;0.20;;;0.20;;
46925;SDS011;32667;48.248;-1.700;2023-05-24T00:31:48;0.20;;;0.20;;
46925;SDS011;32667;48.248;-1.700;2023-05-24T00:34:16;0.20;;;0.20;;
46925;SDS011;32667;48.248;-1.700;2023-05-24T00:36:45;0.20;;;0.20;;
46925;SDS011;32667;48.248;-1.700;2023-05-24T00:39:13;0.20;;;0.20;;
46925;SDS011;32667;48.248;-1.700;2023-05-24T00:41:43;0.20;;;0.20;;
46925;SDS011;32667;48.248;-1.700;2023-05-24T00:44:11;0.20;;;0.20;;
46925;SDS011;32667;48.248;-1.700;2023-05-24T00:46:37;0.20;;;0.20;;
46925;SDS011;32667;48.248;-1.700;2023-05-24T00:49:06;0.30;;;0.30;;
46925;SDS011;32667;48.248;-1.700;2023-05-24T00:51:32;0.30;;;0.30;;
46925;SDS011;32667;48.248;-1.700;2023-05-24T00:54:00;0.20;;;0.20;;
46925;SDS011;32667;48.248;-1.700;2023-05-24T00:56:26;0.25;;;0.25;;
46925;SDS011;32667;48.248;-1.700;2023-05-24T00:58:52;0.20;;;0.20;;
46925;SDS011;32667;48.248;-1.700;2023-05-24T01:01:20;0.20;;;0.20;;
46925;SDS011;32667;48.248;-1.700;2023-05-24T01:03:50;0.20;;;0.20;;
46925;SDS011;32667;48.248;-1.700;2023-05-24T01:06:21;0.20;;;0.20;;
46925;SDS011;32667;48.248;-1.700;2023-05-24T01:08:53;0.20;;;0.20;;
46925;SDS011;32667;48.248;-1.700;2023-05-24T01:17:36;0.20;;;0.20;;
46925;SDS011;32667;48.248;-1.700;2023-05-24T01:20:12;0.20;;;0.20;;
46925;SDS011;32667;48.248;-1.700;2023-05-24T01:28:20;0.20;;;0.20;;
46925;SDS011;32667;48.248;-1.700;2023-05-24T01:30:50;0.20;;;0.20;;
46925;SDS011;32667;48.248;-1.700;2023-05-24T01:33:20;0.20;;;0.20;;
46925;SDS011;32667;48.248;-1.700;2023-05-24T01:35:46;0.20;;;0.20;;
46925;SDS011;32667;48.248;-1.700;2023-05-24T01:38:14;0.20;;;0.20;;
46925;SDS011;32667;48.248;-1.700;2023-05-24T01:40:43;0.20;;;0.20;;
46925;SDS011;32667;48.248;-1.700;2023-05-24T01:43:17;0.20;;;0.20;;
46925;SDS011;32667;48.248;-1.700;2023-05-24T01:46:33;0.20;;;0.20;;
46925;SDS011;32667;48.248;-1.700;2023-05-24T01:54:17;0.20;;;0.20;;
46925;SDS011;32667;48.248;-1.700;2023-05-24T01:56:50;0.30;;;0.30;;
46925;SDS011;32667;48.248;-1.700;2023-05-24T01:59:21;0.30;;;0.30;;
46925;SDS011;32667;48.248;-1.700;2023-05-24T02:01:48;0.20;;;0.20;;
46925;SDS011;32667;48.248;-1.700;2023-05-24T02:04:15;0.28;;;0.28;;
46925;SDS011;32667;48.248;-1.700;2023-05-24T02:06:42;0.20;;;0.20;;
46925;SDS011;32667;48.248;-1.700;2023-05-24T02:09:08;0.20;;;0.20;;
46925;SDS011;32667;48.248;-1.700;2023-05-24T02:11:33;0.20;;;0.20;;
46925;SDS011;32667;48.248;-1.700;2023-05-24T02:13:59;0.20;;;0.20;;
46925;SDS011;32667;48.248;-1.700;2023-05-24T02:16:27;0.20;;;0.20;;
46925;SDS011;32667;48.248;-1.700;2023-05-24T02:18:55;0.20;;;0.20;;
46925;SDS011;32667;48.248;-1.700;2023-05-24T02:21:21;0.20;;;0.20;;
46925;SDS011;32667;48.248;-1.700;2023-05-24T02:23:48;0.20;;;0.20;;
46925;SDS011;32667;48.248;-1.700;2023-05-24T02:26:14;0.20;;;0.20;;
46925;SDS011;32667;48.248;-1.700;2023-05-24T02:28:43;0.30;;;0.30;;
46925;SDS011;32667;48.248;-1.700;2023-05-24T02:31:12;0.20;;;0.20;;
46925;SDS011;32667;48.248;-1.700;2023-05-24T02:33:39;0.20;;;0.20;;
46925;SDS011;32667;48.248;-1.700;2023-05-24T02:36:08;0.20;;;0.20;;
46925;SDS011;32667;48.248;-1.700;2023-05-24T02:38:37;0.20;;;0.20;;
46925;SDS011;32667;48.248;-1.700;2023-05-24T02:41:03;0.30;;;0.30;;
46925;SDS011;32667;48.248;-1.700;2023-05-24T02:43:32;0.20;;;0.20;;
46925;SDS011;32667;48.248;-1.700;2023-05-24T02:46:00;0.22;;;0.22;;
46925;SDS011;32667;48.248;-1.700;2023-05-24T02:48:26;0.30;;;0.30;;
46925;SDS011;32667;48.248;-1.700;2023-05-24T02:50:51;0.30;;;0.30;;
46925;SDS011;32667;48.248;-1.700;2023-05-24T02:55:49;0.20;;;0.20;;
46925;SDS011;32667;48.248;-1.700;2023-05-24T02:58:15;0.30;;;0.30;;
46925;SDS011;32667;48.248;-1.700;2023-05-24T03:00:41;0.20;;;0.20;;
46925;SDS011;32667;48.248;-1.700;2023-05-24T03:03:07;0.20;;;0.20;;
46925;SDS011;32667;48.248;-1.700;2023-05-24T03:05:35;0.28;;;0.28;;
46925;SDS011;32667;48.248;-1.700;2023-05-24T03:08:01;0.20;;;0.20;;
46925;SDS011;32667;48.248;-1.700;2023-05-24T03:10:30;0.22;;;0.22;;
46925;SDS011;32667;48.248;-1.700;2023-05-24T03:12:58;0.20;;;0.20;;
46925;SDS011;32667;48.248;-1.700;2023-05-24T03:15:24;0.20;;;0.20;;
46925;SDS011;32667;48.248;-1.700;2023-05-24T03:17:50;0.30;;;0.30;;
46925;SDS011;32667;48.248;-1.700;2023-05-24T03:20:16;0.20;;;0.20;;
46925;SDS011;32667;48.248;-1.700;2023-05-24T03:22:42;0.30;;;0.30;;
46925;SDS011;32667;48.248;-1.700;2023-05-24T03:25:08;0.25;;;0.25;;
46925;SDS011;32667;48.248;-1.700;2023-05-24T03:27:36;0.22;;;0.22;;
46925;SDS011;32667;48.248;-1.700;2023-05-24T03:30:02;0.20;;;0.20;;
46925;SDS011;32667;48.248;-1.700;2023-05-24T03:32:28;0.20;;;0.20;;
46925;SDS011;32667;48.248;-1.700;2023-05-24T03:34:53;0.20;;;0.20;;
46925;SDS011;32667;48.248;-1.700;2023-05-24T03:37:23;0.20;;;0.20;;
46925;SDS011;32667;48.248;-1.700;2023-05-24T03:39:51;0.20;;;0.20;;
46925;SDS011;32667;48.248;-1.700;2023-05-24T03:42:17;0.20;;;0.20;;
46925;SDS011;32667;48.248;-1.700;2023-05-24T03:44:45;0.28;;;0.28;;
46925;SDS011;32667;48.248;-1.700;2023-05-24T03:47:11;0.20;;;0.20;;
46925;SDS011;32667;48.248;-1.700;2023-05-24T03:49:39;0.28;;;0.28;;
46925;SDS011;32667;48.248;-1.700;2023-05-24T03:52:04;0.30;;;0.30;;
46925;SDS011;32667;48.248;-1.700;2023-05-24T03:54:30;0.30;;;0.30;;
46925;SDS011;32667;48.248;-1.700;2023-05-24T03:56:56;0.20;;;0.20;;
46925;SDS011;32667;48.248;-1.700;2023-05-24T03:59:25;0.20;;;0.20;;
46925;SDS011;32667;48.248;-1.700;2023-05-24T04:02:00;0.22;;;0.22;;
46925;SDS011;32667;48.248;-1.700;2023-05-24T04:04:25;0.20;;;0.20;;
46925;SDS011;32667;48.248;-1.700;2023-05-24T04:06:51;0.20;;;0.20;;
46925;SDS011;32667;48.248;-1.700;2023-05-24T04:09:18;0.20;;;0.20;;
46925;SDS011;32667;48.248;-1.700;2023-05-24T04:11:45;0.30;;;0.30;;
46925;SDS011;32667;48.248;-1.700;2023-05-24T04:14:11;0.20;;;0.20;;
46925;SDS011;32667;48.248;-1.700;2023-05-24T04:16:41;0.20;;;0.20;;
46925;SDS011;32667;48.248;-1.700;2023-05-24T04:19:09;0.20;;;0.20;;
46925;SDS011;32667;48.248;-1.700;2023-05-24T04:21:37;0.20;;;0.20;;
46925;SDS011;32667;48.248;-1.700;2023-05-24T04:24:05;0.28;;;0.28;;
46925;SDS011;32667;48.248;-1.700;2023-05-24T04:26:34;0.30;;;0.30;;
46925;SDS011;32667;48.248;-1.700;2023-05-24T04:29:01;0.30;;;0.30;;
46925;SDS011;32667;48.248;-1.700;2023-05-24T04:31:28;0.30;;;0.30;;
46925;SDS011;32667;48.248;-1.700;2023-05-24T04:33:57;0.20;;;0.20;;
46925;SDS011;32667;48.248;-1.700;2023-05-24T04:36:23;0.20;;;0.20;;
46925;SDS011;32667;48.248;-1.700;2023-05-24T04:38:59;0.25;;;0.25;;
46925;SDS011;32667;48.248;-1.700;2023-05-24T04:41:28;0.30;;;0.30;;
46925;SDS011;32667;48.248;-1.700;2023-05-24T04:43:59;0.30;;;0.30;;
46925;SDS011;32667;48.248;-1.700;2023-05-24T04:46:25;0.28;;;0.28;;
46925;SDS011;32667;48.248;-1.700;2023-05-24T04:48:51;0.30;;;0.30;;
46925;SDS011;32667;48.248;-1.700;2023-05-24T04:51:20;0.20;;;0.20;;
46925;SDS011;32667;48.248;-1.700;2023-05-24T04:53:46;0.30;;;0.30;;
46925;SDS011;32667;48.248;-1.700;2023-05-24T04:56:12;0.28;;;0.28;;
46925;SDS011;32667;48.248;-1.700;2023-05-24T04:58:40;0.30;;;0.30;;
46925;SDS011;32667;48.248;-1.700;2023-05-24T05:01:09;0.17;;;0.17;;
46925;SDS011;32667;48.248;-1.700;2023-05-24T05:03:35;0.25;;;0.25;;
46925;SDS011;32667;48.248;-1.700;2023-05-24T05:06:03;0.20;;;0.20;;
46925;SDS011;32667;48.248;-1.700;2023-05-24T05:08:29;0.20;;;0.20;;
46925;SDS011;32667;48.248;-1.700;2023-05-24T05:10:55;0.20;;;0.20;;
46925;SDS011;32667;48.248;-1.700;2023-05-24T05:13:21;0.30;;;0.30;;
46925;SDS011;32667;48.248;-1.700;2023-05-24T05:15:50;0.30;;;0.30;;
46925;SDS011;32667;48.248;-1.700;2023-05-24T05:18:19;0.20;;;0.20;;
46925;SDS011;32667;48.248;-1.700;2023-05-24T05:20:46;0.30;;;0.30;;
46925;SDS011;32667;48.248;-1.700;2023-05-24T05:23:14;0.20;;;0.20;;
46925;SDS011;32667;48.248;-1.700;2023-05-24T05:25:40;0.20;;;0.20;;
46925;SDS011;32667;48.248;-1.700;2023-05-24T05:28:11;0.30;;;0.30;;
46925;SDS011;32667;48.248;-1.700;2023-05-24T05:30:36;0.20;;;0.20;;
46925;SDS011;32667;48.248;-1.700;2023-05-24T05:33:02;0.20;;;0.20;;
46925;SDS011;32667;48.248;-1.700;2023-05-24T05:35:30;0.20;;;0.20;;
46925;SDS011;32667;48.248;-1.700;2023-05-24T05:37:57;0.30;;;0.30;;
46925;SDS011;32667;48.248;-1.700;2023-05-24T05:40:25;0.20;;;0.20;;
46925;SDS011;32667;48.248;-1.700;2023-05-24T05:42:53;0.30;;;0.30;;
46925;SDS011;32667;48.248;-1.700;2023-05-24T05:45:21;0.20;;;0.20;;
46925;SDS011;32667;48.248;-1.700;2023-05-24T05:47:50;0.30;;;0.30;;
46925;SDS011;32667;48.248;-1.700;2023-05-24T05:50:16;0.20;;;0.20;;
46925;SDS011;32667;48.248;-1.700;2023-05-24T05:52:44;0.20;;;0.20;;
46925;SDS011;32667;48.248;-1.700;2023-05-24T05:55:12;0.20;;;0.20;;
46925;SDS011;32667;48.248;-1.700;2023-05-24T05:57:38;0.20;;;0.20;;
46925;SDS011;32667;48.248;-1.700;2023-05-24T06:00:04;0.25;;;0.25;;
46925;SDS011;32667;48.248;-1.700;2023-05-24T06:02:30;0.30;;;0.30;;
46925;SDS011;32667;48.248;-1.700;2023-05-24T06:05:03;0.20;;;0.20;;
46925;SDS011;32667;48.248;-1.700;2023-05-24T06:07:29;0.30;;;0.30;;
46925;SDS011;32667;48.248;-1.700;2023-05-24T06:09:56;0.30;;;0.30;;
46925;SDS011;32667;48.248;-1.700;2023-05-24T06:12:21;0.30;;;0.30;;
46925;SDS011;32667;48.248;-1.700;2023-05-24T06:14:50;0.20;;;0.20;;
46925;SDS011;32667;48.248;-1.700;2023-05-24T06:17:21;0.20;;;0.20;;
46925;SDS011;32667;48.248;-1.700;2023-05-24T06:19:48;0.20;;;0.20;;
46925;SDS011;32667;48.248;-1.700;2023-05-24T06:22:15;0.20;;;0.20;;
46925;SDS011;32667;48.248;-1.700;2023-05-24T06:24:41;0.20;;;0.20;;
46925;SDS011;32667;48.248;-1.700;2023-05-24T06:27:07;0.20;;;0.20;;
46925;SDS011;32667;48.248;-1.700;2023-05-24T06:29:36;0.20;;;0.20;;
46925;SDS011;32667;48.248;-1.700;2023-05-24T06:32:02;0.20;;;0.20;;
46925;SDS011;32667;48.248;-1.700;2023-05-24T06:34:28;0.30;;;0.30;;
46925;SDS011;32667;48.248;-1.700;2023-05-24T06:36:54;0.30;;;0.30;;
46925;SDS011;32667;48.248;-1.700;2023-05-24T06:39:19;0.20;;;0.20;;
46925;SDS011;32667;48.248;-1.700;2023-05-24T06:41:47;0.20;;;0.20;;
46925;SDS011;32667;48.248;-1.700;2023-05-24T06:44:15;0.30;;;0.30;;
46925;SDS011;32667;48.248;-1.700;2023-05-24T06:46:41;0.20;;;0.20;;
46925;SDS011;32667;48.248;-1.700;2023-05-24T06:49:07;0.20;;;0.20;;
46925;SDS011;32667;48.248;-1.700;2023-05-24T06:51:32;0.20;;;0.20;;
46925;SDS011;32667;48.248;-1.700;2023-05-24T06:54:04;0.20;;;0.20;;
46925;SDS011;32667;48.248;-1.700;2023-05-24T06:56:30;0.20;;;0.20;;
46925;SDS011;32667;48.248;-1.700;2023-05-24T06:58:58;0.20;;;0.20;;
46925;SDS011;32667;48.248;-1.700;2023-05-24T07:01:24;0.20;;;0.20;;
46925;SDS011;32667;48.248;-1.700;2023-05-24T07:03:52;0.20;;;0.20;;
46925;SDS011;32667;48.248;-1.700;2023-05-24T07:06:17;0.20;;;0.20;;
46925;SDS011;32667;48.248;-1.700;2023-05-24T07:08:45;0.20;;;0.20;;
46925;SDS011;32667;48.248;-1.700;2023-05-24T07:11:11;0.30;;;0.30;;
46925;SDS011;32667;48.248;-1.700;2023-05-24T07:13:39;0.20;;;0.20;;
46925;SDS011;32667;48.248;-1.700;2023-05-24T07:16:05;0.20;;;0.20;;
46925;SDS011;32667;48.248;-1.700;2023-05-24T07:18:30;0.20;;;0.20;;
46925;SDS011;32667;48.248;-1.700;2023-05-24T07:20:59;0.20;;;0.20;;
46925;SDS011;32667;48.248;-1.700;2023-05-24T07:23:25;0.20;;;0.20;;
46925;SDS011;32667;48.248;-1.700;2023-05-24T07:25:50;0.20;;;0.20;;
46925;SDS011;32667;48.248;-1.700;2023-05-24T07:28:16;0.20;;;0.20;;
46925;SDS011;32667;48.248;-1.700;2023-05-24T07:30:44;0.20;;;0.20;;
46925;SDS011;32667;48.248;-1.700;2023-05-24T07:33:10;0.20;;;0.20;;
46925;SDS011;32667;48.248;-1.700;2023-05-24T07:35:36;0.20;;;0.20;;
46925;SDS011;32667;48.248;-1.700;2023-05-24T07:38:03;0.20;;;0.20;;
46925;SDS011;32667;48.248;-1.700;2023-05-24T07:40:29;0.20;;;0.20;;
46925;SDS011;32667;48.248;-1.700;2023-05-24T07:43:08;0.20;;;0.20;;
46925;SDS011;32667;48.248;-1.700;2023-05-24T07:45:36;0.20;;;0.20;;
46925;SDS011;32667;48.248;-1.700;2023-05-24T07:48:05;0.20;;;0.20;;
46925;SDS011;32667;48.248;-1.700;2023-05-24T07:50:31;0.20;;;0.20;;
46925;SDS011;32667;48.248;-1.700;2023-05-24T07:53:02;0.28;;;0.28;;
46925;SDS011;32667;48.248;-1.700;2023-05-24T07:55:30;0.20;;;0.20;;
46925;SDS011;32667;48.248;-1.700;2023-05-24T07:57:56;0.20;;;0.20;;
46925;SDS011;32667;48.248;-1.700;2023-05-24T08:00:21;0.20;;;0.20;;
46925;SDS011;32667;48.248;-1.700;2023-05-24T08:02:47;0.20;;;0.20;;
46925;SDS011;32667;48.248;-1.700;2023-05-24T08:05:13;0.20;;;0.20;;
46925;SDS011;32667;48.248;-1.700;2023-05-24T08:07:40;0.20;;;0.20;;
46925;SDS011;32667;48.248;-1.700;2023-05-24T08:10:07;0.20;;;0.20;;
46925;SDS011;32667;48.248;-1.700;2023-05-24T08:12:36;0.20;;;0.20;;
46925;SDS011;32667;48.248;-1.700;2023-05-24T08:15:02;0.15;;;0.15;;
46925;SDS011;32667;48.248;-1.700;2023-05-24T08:17:31;0.20;;;0.20;;
46925;SDS011;32667;48.248;-1.700;2023-05-24T08:19:57;0.20;;;0.20;;
46925;SDS011;32667;48.248;-1.700;2023-05-24T08:22:23;0.20;;;0.20;;
46925;SDS011;32667;48.248;-1.700;2023-05-24T08:24:50;0.20;;;0.20;;
46925;SDS011;32667;48.248;-1.700;2023-05-24T08:27:22;0.20;;;0.20;;
46925;SDS011;32667;48.248;-1.700;2023-05-24T08:29:48;0.10;;;0.10;;
46925;SDS011;32667;48.248;-1.700;2023-05-24T08:32:13;0.20;;;0.20;;
46925;SDS011;32667;48.248;-1.700;2023-05-24T08:34:39;0.20;;;0.20;;
46925;SDS011;32667;48.248;-1.700;2023-05-24T08:37:05;0.20;;;0.20;;
46925;SDS011;32667;48.248;-1.700;2023-05-24T08:39:33;0.20;;;0.20;;
46925;SDS011;32667;48.248;-1.700;2023-05-24T08:41:59;0.13;;;0.13;;
46925;SDS011;32667;48.248;-1.700;2023-05-24T08:44:27;0.20;;;0.20;;
46925;SDS011;32667;48.248;-1.700;2023-05-24T08:46:56;0.20;;;0.20;;
46925;SDS011;32667;48.248;-1.700;2023-05-24T08:49:22;0.20;;;0.20;;
46925;SDS011;32667;48.248;-1.700;2023-05-24T08:51:48;0.10;;;0.10;;
46925;SDS011;32667;48.248;-1.700;2023-05-24T08:54:17;0.10;;;0.10;;
46925;SDS011;32667;48.248;-1.700;2023-05-24T08:56:44;0.20;;;0.20;;
46925;SDS011;32667;48.248;-1.700;2023-05-24T08:59:10;0.20;;;0.20;;
46925;SDS011;32667;48.248;-1.700;2023-05-24T09:01:38;0.15;;;0.15;;
46925;SDS011;32667;48.248;-1.700;2023-05-24T09:04:07;0.20;;;0.20;;
46925;SDS011;32667;48.248;-1.700;2023-05-24T09:06:33;0.20;;;0.20;;
46925;SDS011;32667;48.248;-1.700;2023-05-24T09:08:59;0.10;;;0.10;;
46925;SDS011;32667;48.248;-1.700;2023-05-24T09:11:35;0.20;;;0.20;;
46925;SDS011;32667;48.248;-1.700;2023-05-24T09:14:01;0.20;;;0.20;;
46925;SDS011;32667;48.248;-1.700;2023-05-24T09:16:27;0.10;;;0.10;;
46925;SDS011;32667;48.248;-1.700;2023-05-24T09:18:53;0.10;;;0.10;;
46925;SDS011;32667;48.248;-1.700;2023-05-24T09:21:21;0.10;;;0.10;;
46925;SDS011;32667;48.248;-1.700;2023-05-24T09:23:56;0.20;;;0.20;;
46925;SDS011;32667;48.248;-1.700;2023-05-24T09:26:25;0.20;;;0.20;;
46925;SDS011;32667;48.248;-1.700;2023-05-24T09:28:58;0.20;;;0.20;;
46925;SDS011;32667;48.248;-1.700;2023-05-24T09:31:33;0.10;;;0.10;;
46925;SDS011;32667;48.248;-1.700;2023-05-24T09:34:00;0.10;;;0.10;;
46925;SDS011;32667;48.248;-1.700;2023-05-24T09:36:29;0.20;;;0.20;;
46925;SDS011;32667;48.248;-1.700;2023-05-24T09:39:07;0.20;;;0.20;;
46925;SDS011;32667;48.248;-1.700;2023-05-24T09:41:37;0.10;;;0.10;;
46925;SDS011;32667;48.248;-1.700;2023-05-24T09:44:04;0.10;;;0.10;;
46925;SDS011;32667;48.248;-1.700;2023-05-24T09:46:36;0.10;;;0.10;;
46925;SDS011;32667;48.248;-1.700;2023-05-24T09:49:04;0.20;;;0.20;;
46925;SDS011;32667;48.248;-1.700;2023-05-24T09:51:35;0.10;;;0.10;;
46925;SDS011;32667;48.248;-1.700;2023-05-24T09:54:02;0.10;;;0.10;;
46925;SDS011;32667;48.248;-1.700;2023-05-24T09:56:28;0.20;;;0.20;;
46925;SDS011;32667;48.248;-1.700;2023-05-24T09:59:07;0.20;;;0.20;;
46925;SDS011;32667;48.248;-1.700;2023-05-24T10:01:33;0.20;;;0.20;;
46925;SDS011;32667;48.248;-1.700;2023-05-24T10:04:02;0.20;;;0.20;;
46925;SDS011;32667;48.248;-1.700;2023-05-24T10:06:32;0.10;;;0.10;;
46925;SDS011;32667;48.248;-1.700;2023-05-24T10:09:01;0.10;;;0.10;;
46925;SDS011;32667;48.248;-1.700;2023-05-24T10:11:33;0.10;;;0.10;;
46925;SDS011;32667;48.248;-1.700;2023-05-24T10:14:02;0.10;;;0.10;;
46925;SDS011;32667;48.248;-1.700;2023-05-24T10:16:30;0.10;;;0.10;;
46925;SDS011;32667;48.248;-1.700;2023-05-24T10:19:00;0.13;;;0.13;;
46925;SDS011;32667;48.248;-1.700;2023-05-24T10:21:26;0.10;;;0.10;;
46925;SDS011;32667;48.248;-1.700;2023-05-24T10:23:56;0.20;;;0.20;;
46925;SDS011;32667;48.248;-1.700;2023-05-24T10:26:27;0.20;;;0.20;;
46925;SDS011;32667;48.248;-1.700;2023-05-24T10:28:57;0.13;;;0.13;;
46925;SDS011;32667;48.248;-1.700;2023-05-24T10:31:34;0.10;;;0.10;;
46925;SDS011;32667;48.248;-1.700;2023-05-24T10:36:31;0.10;;;0.10;;
46925;SDS011;32667;48.248;-1.700;2023-05-24T10:38:59;0.17;;;0.17;;
46925;SDS011;32667;48.248;-1.700;2023-05-24T10:41:28;0.20;;;0.20;;
46925;SDS011;32667;48.248;-1.700;2023-05-24T10:44:02;0.17;;;0.17;;
46925;SDS011;32667;48.248;-1.700;2023-05-24T10:46:49;0.10;;;0.10;;
46925;SDS011;32667;48.248;-1.700;2023-05-24T10:49:34;0.15;;;0.15;;
46925;SDS011;32667;48.248;-1.700;2023-05-24T10:52:08;0.20;;;0.20;;
46925;SDS011;32667;48.248;-1.700;2023-05-24T10:54:34;0.20;;;0.20;;
46925;SDS011;32667;48.248;-1.700;2023-05-24T10:57:02;0.10;;;0.10;;
46925;SDS011;32667;48.248;-1.700;2023-05-24T10:59:35;0.20;;;0.20;;
46925;SDS011;32667;48.248;-1.700;2023-05-24T11:02:06;0.10;;;0.10;;
46925;SDS011;32667;48.248;-1.700;2023-05-24T11:04:42;0.10;;;0.10;;
46925;SDS011;32667;48.248;-1.700;2023-05-24T11:07:21;0.15;;;0.15;;
46925;SDS011;32667;48.248;-1.700;2023-05-24T11:09:47;0.17;;;0.17;;
46925;SDS011;32667;48.248;-1.700;2023-05-24T11:12:20;0.10;;;0.10;;
46925;SDS011;32667;48.248;-1.700;2023-05-24T11:14:47;0.10;;;0.10;;
46925;SDS011;32667;48.248;-1.700;2023-05-24T11:17:15;0.10;;;0.10;;
46925;SDS011;32667;48.248;-1.700;2023-05-24T11:19:49;0.20;;;0.20;;
46925;SDS011;32667;48.248;-1.700;2023-05-24T11:22:16;0.10;;;0.10;;
46925;SDS011;32667;48.248;-1.700;2023-05-24T11:24:44;0.10;;;0.10;;
46925;SDS011;32667;48.248;-1.700;2023-05-24T11:27:11;0.20;;;0.20;;
46925;SDS011;32667;48.248;-1.700;2023-05-24T11:29:44;0.20;;;0.20;;
46925;SDS011;32667;48.248;-1.700;2023-05-24T11:32:18;0.10;;;0.10;;
46925;SDS011;32667;48.248;-1.700;2023-05-24T11:34:45;0.10;;;0.10;;
46925;SDS011;32667;48.248;-1.700;2023-05-24T11:37:11;0.10;;;0.10;;
46925;SDS011;32667;48.248;-1.700;2023-05-24T11:39:37;0.10;;;0.10;;
46925;SDS011;32667;48.248;-1.700;2023-05-24T11:42:04;0.10;;;0.10;;
46925;SDS011;32667;48.248;-1.700;2023-05-24T11:44:31;0.10;;;0.10;;
46925;SDS011;32667;48.248;-1.700;2023-05-24T11:47:02;0.10;;;0.10;;
46925;SDS011;32667;48.248;-1.700;2023-05-24T11:49:30;0.10;;;0.10;;
46925;SDS011;32667;48.248;-1.700;2023-05-24T11:51:56;0.10;;;0.10;;
46925;SDS011;32667;48.248;-1.700;2023-05-24T11:54:23;0.10;;;0.10;;
46925;SDS011;32667;48.248;-1.700;2023-05-24T11:56:51;0.10;;;0.10;;
46925;SDS011;32667;48.248;-1.700;2023-05-24T11:59:27;0.10;;;0.10;;
46925;SDS011;32667;48.248;-1.700;2023-05-24T12:01:57;0.10;;;0.10;;
46925;SDS011;32667;48.248;-1.700;2023-05-24T12:04:24;0.10;;;0.10;;
46925;SDS011;32667;48.248;-1.700;2023-05-24T12:06:52;0.10;;;0.10;;
46925;SDS011;32667;48.248;-1.700;2023-05-24T12:09:19;0.17;;;0.17;;
46925;SDS011;32667;48.248;-1.700;2023-05-24T12:11:46;0.10;;;0.10;;
46925;SDS011;32667;48.248;-1.700;2023-05-24T12:14:14;0.10;;;0.10;;
46925;SDS011;32667;48.248;-1.700;2023-05-24T12:16:46;0.10;;;0.10;;
46925;SDS011;32667;48.248;-1.700;2023-05-24T12:19:16;0.10;;;0.10;;
46925;SDS011;32667;48.248;-1.700;2023-05-24T12:21:43;0.10;;;0.10;;
46925;SDS011;32667;48.248;-1.700;2023-05-24T12:24:11;0.10;;;0.10;;
46925;SDS011;32667;48.248;-1.700;2023-05-24T12:26:41;0.10;;;0.10;;
46925;SDS011;32667;48.248;-1.700;2023-05-24T12:29:10;0.10;;;0.10;;
46925;SDS011;32667;48.248;-1.700;2023-05-24T12:31:40;0.20;;;0.20;;
46925;SDS011;32667;48.248;-1.700;2023-05-24T12:34:13;0.10;;;0.10;;
46925;SDS011;32667;48.248;-1.700;2023-05-24T12:36:42;0.10;;;0.10;;
46925;SDS011;32667;48.248;-1.700;2023-05-24T12:39:20;0.10;;;0.10;;
46925;SDS011;32667;48.248;-1.700;2023-05-24T12:41:51;0.10;;;0.10;;
46925;SDS011;32667;48.248;-1.700;2023-05-24T12:44:22;0.10;;;0.10;;
46925;SDS011;32667;48.248;-1.700;2023-05-24T12:46:50;0.10;;;0.10;;
46925;SDS011;32667;48.248;-1.700;2023-05-24T12:49:18;0.10;;;0.10;;
46925;SDS011;32667;48.248;-1.700;2023-05-24T12:51:47;0.10;;;0.10;;
46925;SDS011;32667;48.248;-1.700;2023-05-24T12:54:13;0.10;;;0.10;;
46925;SDS011;32667;48.248;-1.700;2023-05-24T12:56:39;0.10;;;0.10;;
46925;SDS011;32667;48.248;-1.700;2023-05-24T12:59:05;0.10;;;0.10;;
46925;SDS011;32667;48.248;-1.700;2023-05-24T13:01:31;0.10;;;0.10;;
46925;SDS011;32667;48.248;-1.700;2023-05-24T13:03:57;0.10;;;0.10;;
46925;SDS011;32667;48.248;-1.700;2023-05-24T13:06:23;0.10;;;0.10;;
46925;SDS011;32667;48.248;-1.700;2023-05-24T13:08:49;0.10;;;0.10;;
46925;SDS011;32667;48.248;-1.700;2023-05-24T13:11:15;0.10;;;0.10;;
46925;SDS011;32667;48.248;-1.700;2023-05-24T13:13:43;0.10;;;0.10;;
46925;SDS011;32667;48.248;-1.700;2023-05-24T13:16:10;0.10;;;0.10;;
46925;SDS011;32667;48.248;-1.700;2023-05-24T13:18:36;0.10;;;0.10;;
46925;SDS011;32667;48.248;-1.700;2023-05-24T13:21:05;0.10;;;0.10;;
46925;SDS011;32667;48.248;-1.700;2023-05-24T13:23:32;0.10;;;0.10;;
46925;SDS011;32667;48.248;-1.700;2023-05-24T13:26:00;0.10;;;0.10;;
46925;SDS011;32667;48.248;-1.700;2023-05-24T13:28:33;0.10;;;0.10;;
46925;SDS011;32667;48.248;-1.700;2023-05-24T13:31:02;0.10;;;0.10;;
46925;SDS011;32667;48.248;-1.700;2023-05-24T13:33:31;0.10;;;0.10;;
46925;SDS011;32667;48.248;-1.700;2023-05-24T13:35:59;0.10;;;0.10;;
46925;SDS011;32667;48.248;-1.700;2023-05-24T13:38:25;0.10;;;0.10;;
46925;SDS011;32667;48.248;-1.700;2023-05-24T13:40:52;0.10;;;0.10;;
46925;SDS011;32667;48.248;-1.700;2023-05-24T13:43:20;0.10;;;0.10;;
46925;SDS011;32667;48.248;-1.700;2023-05-24T13:45:48;0.10;;;0.10;;
46925;SDS011;32667;48.248;-1.700;2023-05-24T13:48:17;0.10;;;0.10;;
46925;SDS011;32667;48.248;-1.700;2023-05-24T13:50:43;0.10;;;0.10;;
46925;SDS011;32667;48.248;-1.700;2023-05-24T13:53:09;0.10;;;0.10;;
46925;SDS011;32667;48.248;-1.700;2023-05-24T13:55:37;0.10;;;0.10;;
46925;SDS011;32667;48.248;-1.700;2023-05-24T13:58:03;0.10;;;0.10;;
46925;SDS011;32667;48.248;-1.700;2023-05-24T14:00:29;0.10;;;0.10;;
46925;SDS011;32667;48.248;-1.700;2023-05-24T14:02:55;0.10;;;0.10;;
46925;SDS011;32667;48.248;-1.700;2023-05-24T14:05:23;0.10;;;0.10;;
46925;SDS011;32667;48.248;-1.700;2023-05-24T14:07:49;0.10;;;0.10;;
46925;SDS011;32667;48.248;-1.700;2023-05-24T14:10:15;0.10;;;0.10;;
46925;SDS011;32667;48.248;-1.700;2023-05-24T14:12:48;0.10;;;0.10;;
46925;SDS011;32667;48.248;-1.700;2023-05-24T14:15:16;0.10;;;0.10;;
46925;SDS011;32667;48.248;-1.700;2023-05-24T14:17:42;0.10;;;0.10;;
46925;SDS011;32667;48.248;-1.700;2023-05-24T14:20:08;0.10;;;0.10;;
46925;SDS011;32667;48.248;-1.700;2023-05-24T14:22:34;0.10;;;0.10;;
46925;SDS011;32667;48.248;-1.700;2023-05-24T14:24:59;0.10;;;0.10;;
46925;SDS011;32667;48.248;-1.700;2023-05-24T14:27:25;0.10;;;0.10;;
46925;SDS011;32667;48.248;-1.700;2023-05-24T14:29:51;0.10;;;0.10;;
46925;SDS011;32667;48.248;-1.700;2023-05-24T14:32:16;0.10;;;0.10;;
46925;SDS011;32667;48.248;-1.700;2023-05-24T14:34:45;0.10;;;0.10;;
46925;SDS011;32667;48.248;-1.700;2023-05-24T14:37:14;0.10;;;0.10;;
46925;SDS011;32667;48.248;-1.700;2023-05-24T14:39:42;0.10;;;0.10;;
46925;SDS011;32667;48.248;-1.700;2023-05-24T14:42:08;0.10;;;0.10;;
46925;SDS011;32667;48.248;-1.700;2023-05-24T14:44:34;0.10;;;0.10;;
46925;SDS011;32667;48.248;-1.700;2023-05-24T14:46:59;0.10;;;0.10;;
46925;SDS011;32667;48.248;-1.700;2023-05-24T14:49:27;0.10;;;0.10;;
46925;SDS011;32667;48.248;-1.700;2023-05-24T14:51:58;0.10;;;0.10;;
46925;SDS011;32667;48.248;-1.700;2023-05-24T14:54:24;0.10;;;0.10;;
46925;SDS011;32667;48.248;-1.700;2023-05-24T14:56:52;0.10;;;0.10;;
46925;SDS011;32667;48.248;-1.700;2023-05-24T14:59:18;0.10;;;0.10;;
46925;SDS011;32667;48.248;-1.700;2023-05-24T15:01:43;0.10;;;0.10;;